createdAt,value
2023-04-24T00:01:20.539Z,9.17
2023-04-24T00:04:28.805Z,7.87
2023-04-24T00:07:35.186Z,8.43
2023-04-24T00:10:41.474Z,7.83
2023-04-24T00:13:47.749Z,7.87
2023-04-24T00:16:54.430Z,7.73
2023-04-24T00:20:03.008Z,8.60
2023-04-24T00:23:09.444Z,7.13
2023-04-24T00:26:15.954Z,7.73
2023-04-24T00:29:22.420Z,7.63
2023-04-24T00:32:28.913Z,7.87
2023-04-24T00:35:36.279Z,8.97
2023-04-24T00:38:42.451Z,7.83
2023-04-24T00:41:49.216Z,8.50
2023-04-24T00:44:55.757Z,8.20
2023-04-24T00:48:02.968Z,8.20
2023-04-24T00:51:10.497Z,8.03
2023-04-24T00:54:16.648Z,8.83
2023-04-24T00:57:24.751Z,8.37
2023-04-24T01:00:31.379Z,8.77
2023-04-24T01:03:39.430Z,8.23
2023-04-24T01:06:47.888Z,8.67
2023-04-24T01:09:54.029Z,8.90
2023-04-24T01:13:00.874Z,8.57
2023-04-24T01:16:07.650Z,8.37
2023-04-24T01:19:15.355Z,7.33
2023-04-24T01:22:23.138Z,8.17
2023-04-24T01:25:30.365Z,8.40
2023-04-24T01:28:37.001Z,9.00
2023-04-24T01:31:43.736Z,9.03
2023-04-24T01:34:51.463Z,9.03
2023-04-24T01:37:59.338Z,8.60
2023-04-24T01:41:06.647Z,8.93
2023-04-24T01:44:13.126Z,8.23
2023-04-24T01:47:19.593Z,8.13
2023-04-24T01:50:26.322Z,8.37
2023-04-24T01:53:33.871Z,8.67
2023-04-24T01:56:44.050Z,8.53
2023-04-24T01:59:50.088Z,8.57
2023-04-24T02:02:56.650Z,8.43
2023-04-24T02:06:03.014Z,8.33
2023-04-24T02:09:11.905Z,8.50
2023-04-24T02:12:18.590Z,9.30
2023-04-24T02:15:25.107Z,8.37
2023-04-24T02:18:31.419Z,9.23
2023-04-24T02:21:37.644Z,8.17
2023-04-24T02:24:45.634Z,8.07
2023-04-24T02:27:52.213Z,8.13
2023-04-24T02:30:58.441Z,8.20
2023-04-24T02:34:04.554Z,9.20
2023-04-24T02:37:10.890Z,10.00
2023-04-24T02:40:18.840Z,10.63
2023-04-24T02:43:25.436Z,9.10
2023-04-24T02:46:31.683Z,9.07
2023-04-24T02:49:37.878Z,8.73
2023-04-24T02:52:44.033Z,9.53
2023-04-24T02:55:51.785Z,8.80
2023-04-24T02:58:58.018Z,8.50
2023-04-24T03:02:04.141Z,12.03
2023-04-24T03:05:13.065Z,24.43
2023-04-24T03:08:19.811Z,19.17
2023-04-24T03:11:27.419Z,14.77
2023-04-24T03:14:33.831Z,14.33
2023-04-24T03:17:40.401Z,13.80
2023-04-24T03:20:48.401Z,13.47
2023-04-24T03:23:55.070Z,14.87
2023-04-24T03:27:02.580Z,12.33
2023-04-24T03:30:10.108Z,14.37
2023-04-24T03:33:16.227Z,13.47
2023-04-24T03:36:22.538Z,15.57
2023-04-24T03:39:28.616Z,21.30
2023-04-24T03:42:38.012Z,18.03
2023-04-24T03:45:45.468Z,13.93
2023-04-24T03:48:51.689Z,11.87
2023-04-24T03:51:58.050Z,15.40
2023-04-24T03:55:04.143Z,20.77
2023-04-24T03:58:12.294Z,71.00
2023-04-24T04:01:20.113Z,70.23
2023-04-24T04:04:26.510Z,59.77
2023-04-24T04:07:32.710Z,60.07
2023-04-24T04:10:38.925Z,50.30
2023-04-24T04:13:46.806Z,42.17
2023-04-24T04:16:55.010Z,38.90
2023-04-24T04:20:02.120Z,25.80
2023-04-24T04:23:08.352Z,19.27
2023-04-24T04:26:14.795Z,20.10
2023-04-24T04:29:23.716Z,21.70
2023-04-24T04:32:30.208Z,20.83
2023-04-24T04:35:37.520Z,19.23
2023-04-24T04:38:44.191Z,24.23
2023-04-24T04:41:51.502Z,20.87
2023-04-24T04:44:59.444Z,25.03
2023-04-24T04:48:07.126Z,21.60
2023-04-24T04:51:14.047Z,20.20
2023-04-24T04:54:20.547Z,17.63
2023-04-24T04:57:27.108Z,24.87
2023-04-24T05:00:36.938Z,30.27
2023-04-24T05:03:43.274Z,32.17
2023-04-24T05:06:49.622Z,16.03
2023-04-24T05:09:55.974Z,15.90
2023-04-24T05:13:02.154Z,19.57
2023-04-24T05:16:09.981Z,16.63
2023-04-24T05:19:17.974Z,11.60
2023-04-24T05:22:25.056Z,14.13
2023-04-24T05:25:33.248Z,13.87
2023-04-24T05:28:39.657Z,14.37
2023-04-24T05:31:47.827Z,17.17
2023-04-24T05:34:54.600Z,21.40
2023-04-24T05:38:00.794Z,22.37
2023-04-24T05:41:07.179Z,25.07
2023-04-24T05:44:13.370Z,25.80
2023-04-24T05:47:22.850Z,15.03
2023-04-24T05:50:28.920Z,13.53
2023-04-24T05:53:35.212Z,12.50
2023-04-24T05:56:43.151Z,13.60
2023-04-24T05:59:49.787Z,9.93
2023-04-24T06:02:57.760Z,13.23
2023-04-24T06:06:04.210Z,11.33
2023-04-24T06:09:10.226Z,11.37
2023-04-24T06:12:16.340Z,9.07
2023-04-24T06:15:22.641Z,8.33
2023-04-24T06:18:30.244Z,10.67
2023-04-24T06:21:36.499Z,9.93
2023-04-24T06:24:43.015Z,9.47
2023-04-24T06:27:49.332Z,10.53
2023-04-24T06:30:55.866Z,7.10
2023-04-24T06:34:04.009Z,7.33
2023-04-24T06:37:10.597Z,11.20
2023-04-24T06:40:16.913Z,13.80
2023-04-24T06:43:23.325Z,15.83
2023-04-24T06:46:29.929Z,14.10
2023-04-24T06:49:37.709Z,14.03
2023-04-24T06:52:44.242Z,8.90
2023-04-24T06:55:50.581Z,8.93
2023-04-24T06:58:57.308Z,8.33
2023-04-24T07:02:04.098Z,8.00
2023-04-24T07:05:12.952Z,5.97
2023-04-24T07:08:19.425Z,5.30
2023-04-24T07:11:30.473Z,6.30
2023-04-24T07:14:36.969Z,5.60
2023-04-24T07:17:45.509Z,5.87
2023-04-24T07:20:53.503Z,5.47
2023-04-24T07:24:00.183Z,5.87
2023-04-24T07:27:06.977Z,5.17
2023-04-24T07:30:14.143Z,4.47
2023-04-24T07:33:20.563Z,4.67
2023-04-24T07:36:29.153Z,3.90
2023-04-24T07:39:35.606Z,6.03
2023-04-24T07:42:42.620Z,5.13
2023-04-24T07:45:49.589Z,4.70
2023-04-24T07:49:11.723Z,5.13
2023-04-24T07:52:20.948Z,9.63
2023-04-24T07:55:28.255Z,5.10
2023-04-24T07:58:35.173Z,5.83
2023-04-24T08:01:41.355Z,5.03
2023-04-24T08:04:47.703Z,6.67
2023-04-24T08:07:55.559Z,4.93
2023-04-24T08:11:01.600Z,6.03
2023-04-24T08:14:07.584Z,4.70
2023-04-24T08:17:13.896Z,4.73
2023-04-24T08:20:20.478Z,5.00
2023-04-24T08:23:28.447Z,4.07
2023-04-24T08:26:34.978Z,5.00
2023-04-24T08:29:41.606Z,5.67
2023-04-24T08:32:48.517Z,4.80
2023-04-24T08:35:55.762Z,4.40
2023-04-24T08:39:03.361Z,3.53
2023-04-24T08:42:10.924Z,3.73
2023-04-24T08:45:17.390Z,4.40
2023-04-24T08:48:31.255Z,3.83
2023-04-24T08:51:39.959Z,3.50
2023-04-24T08:54:48.520Z,4.63
2023-04-24T08:57:55.694Z,4.10
2023-04-24T09:01:03.040Z,3.67
2023-04-24T09:04:12.017Z,3.93
2023-04-24T09:07:20.285Z,3.30
2023-04-24T09:10:29.260Z,4.03
2023-04-24T09:13:36.416Z,4.43
2023-04-24T09:16:42.725Z,5.00
2023-04-24T09:19:48.973Z,4.53
2023-04-24T09:22:57.328Z,5.17
2023-04-24T09:26:07.136Z,4.90
2023-04-24T09:29:18.020Z,4.30
2023-04-24T09:32:26.919Z,4.00
2023-04-24T09:35:34.693Z,4.33
2023-04-24T09:38:41.228Z,4.17
2023-04-24T09:41:50.440Z,4.20
2023-04-24T09:45:04.473Z,4.00
2023-04-24T09:48:18.545Z,3.87
2023-04-24T09:51:36.407Z,3.57
2023-04-24T09:54:42.535Z,4.43
2023-04-24T09:57:55.674Z,5.50
2023-04-24T10:01:02.045Z,4.40
2023-04-24T10:04:08.409Z,3.87
2023-04-24T10:07:17.456Z,4.43
2023-04-24T10:10:25.050Z,3.60
2023-04-24T10:13:33.551Z,3.77
2023-04-24T10:16:40.512Z,3.67
2023-04-24T10:19:48.190Z,3.37
2023-04-24T10:22:55.943Z,4.30
2023-04-24T10:26:03.332Z,3.67
2023-04-24T10:29:13.667Z,3.37
2023-04-24T10:32:20.156Z,4.43
2023-04-24T10:35:27.935Z,4.17
2023-04-24T10:52:03.518Z,3.80
2023-04-24T10:55:10.347Z,3.80
2023-04-24T10:58:17.929Z,4.40
2023-04-24T11:01:28.675Z,3.60
2023-04-24T11:04:36.441Z,3.47
2023-04-24T11:08:14.704Z,3.67
2023-04-24T11:11:22.839Z,3.53
2023-04-24T11:14:29.221Z,4.20
2023-04-24T11:17:38.789Z,3.67
2023-04-24T11:20:46.053Z,3.73
2023-04-24T11:23:54.174Z,3.07
2023-04-24T11:27:02.792Z,3.85
2023-04-24T11:30:10.640Z,3.90
2023-04-24T11:33:22.688Z,4.03
2023-04-24T11:36:28.831Z,3.53
2023-04-24T11:39:40.331Z,3.70
2023-04-24T11:42:47.749Z,3.20
2023-04-24T11:45:54.064Z,3.27
2023-04-24T11:49:01.442Z,3.80
2023-04-24T11:52:07.586Z,3.70
2023-04-24T11:55:28.465Z,3.60
2023-04-24T11:58:37.473Z,3.93
2023-04-24T12:01:47.429Z,3.20
2023-04-24T12:04:54.457Z,3.73
2023-04-24T12:08:01.421Z,3.60
2023-04-24T12:11:09.870Z,3.10
2023-04-24T12:14:16.069Z,3.37
2023-04-24T12:17:29.181Z,3.50
2023-04-24T12:20:36.005Z,3.50
2023-04-24T12:23:45.814Z,3.47
2023-04-24T12:26:54.716Z,3.30
2023-04-24T12:30:01.848Z,3.30
2023-04-24T12:33:08.479Z,3.67
2023-04-24T12:36:14.964Z,3.23
2023-04-24T12:39:24.763Z,3.23
2023-04-24T12:42:33.110Z,3.57
2023-04-24T12:45:39.470Z,3.20
2023-04-24T12:48:45.822Z,3.00
2023-04-24T12:51:52.243Z,3.07
2023-04-24T12:54:59.839Z,3.43
2023-04-24T12:58:07.934Z,3.90
2023-04-24T13:01:14.600Z,4.03
2023-04-24T13:04:21.436Z,3.23
2023-04-24T13:07:28.158Z,3.40
2023-04-24T13:10:34.643Z,3.23
2023-04-24T13:13:42.902Z,3.40
2023-04-24T13:16:49.715Z,3.70
2023-04-24T13:19:57.348Z,3.47
2023-04-24T13:23:03.952Z,3.23
2023-04-24T13:26:10.333Z,3.77
2023-04-24T13:29:18.059Z,3.23
2023-04-24T13:32:27.972Z,3.30
2023-04-24T13:35:34.665Z,3.07
2023-04-24T13:38:40.885Z,3.50
2023-04-24T13:41:48.954Z,3.30
2023-04-24T13:44:56.611Z,2.97
2023-04-24T13:48:04.218Z,3.70
2023-04-24T13:51:10.791Z,3.10
2023-04-24T13:54:17.357Z,3.67
2023-04-24T13:57:23.592Z,3.10
2023-04-24T14:00:31.095Z,3.60
2023-04-24T14:03:40.175Z,3.47
2023-04-24T14:06:46.918Z,3.40
2023-04-24T14:09:55.772Z,3.50
2023-04-24T14:13:02.228Z,4.10
2023-04-24T14:16:10.293Z,3.60
2023-04-24T14:19:16.682Z,4.73
2023-04-24T14:22:22.882Z,8.80
2023-04-24T14:25:29.286Z,6.57
2023-04-24T14:28:35.849Z,4.53
2023-04-24T14:31:43.945Z,3.60
2023-04-24T14:34:50.612Z,3.63
2023-04-24T14:37:57.288Z,3.90
2023-04-24T14:41:13.170Z,3.83
2023-04-24T14:44:20.841Z,4.20
2023-04-24T14:47:28.438Z,4.03
2023-04-24T14:50:34.885Z,3.73
2023-04-24T14:53:41.760Z,3.73
2023-04-24T14:56:48.156Z,5.20
2023-04-24T14:59:54.869Z,3.97
2023-04-24T15:03:03.391Z,4.90
2023-04-24T15:06:09.893Z,3.77
2023-04-24T15:09:16.373Z,3.47
2023-04-24T15:12:23.440Z,4.03
2023-04-24T15:15:29.887Z,3.90
2023-04-24T15:18:37.557Z,4.07
2023-04-24T15:21:45.579Z,4.40
2023-04-24T15:24:52.193Z,3.87
2023-04-24T15:27:59.757Z,4.60
2023-04-24T15:31:06.190Z,3.93
2023-04-24T15:34:13.752Z,4.20
2023-04-24T15:37:19.941Z,5.10
2023-04-24T15:40:26.433Z,5.20
2023-04-24T15:43:35.299Z,3.43
2023-04-24T15:46:41.888Z,3.63
2023-04-24T15:49:50.007Z,3.80
2023-04-24T15:52:56.681Z,4.27
2023-04-24T15:56:03.520Z,4.30
2023-04-24T15:59:10.144Z,4.37
2023-04-24T16:02:19.380Z,4.60
2023-04-24T16:05:27.834Z,4.20
2023-04-24T16:08:34.278Z,3.90
2023-04-24T16:11:40.980Z,4.03
2023-04-24T16:14:47.395Z,5.93
2023-04-24T16:17:54.175Z,5.50
2023-04-24T16:21:02.551Z,4.27
2023-04-24T16:24:09.498Z,3.63
2023-04-24T16:27:16.601Z,4.50
2023-04-24T16:30:23.814Z,4.30
2023-04-24T16:33:31.963Z,6.43
2023-04-24T16:36:40.661Z,6.60
2023-04-24T16:39:48.001Z,5.93
2023-04-24T16:42:55.363Z,5.57
2023-04-24T16:46:02.439Z,10.87
2023-04-24T16:49:09.692Z,7.47
2023-04-24T16:52:18.268Z,8.70
2023-04-24T16:55:25.638Z,11.33
2023-04-24T16:58:32.980Z,9.20
2023-04-24T17:01:40.137Z,8.07
2023-04-24T17:04:48.417Z,5.70
2023-04-24T17:07:57.323Z,5.77
2023-04-24T17:11:04.374Z,8.67
2023-04-24T17:14:11.469Z,7.47
2023-04-24T17:17:20.447Z,9.43
2023-04-24T17:20:29.766Z,12.90
2023-04-24T17:23:53.440Z,5.60
2023-04-24T17:27:08.062Z,6.97
2023-04-24T17:30:34.081Z,6.93
2023-04-24T17:33:41.258Z,7.87
2023-04-24T17:36:48.515Z,9.20
2023-04-24T17:39:56.995Z,11.40
2023-04-24T17:43:03.180Z,8.80
2023-04-24T17:46:09.594Z,8.20
2023-04-24T17:49:16.216Z,9.47
2023-04-24T17:52:22.913Z,11.87
2023-04-24T17:55:30.728Z,11.90
2023-04-24T17:58:37.600Z,21.37
2023-04-24T18:01:44.015Z,19.83
2023-04-24T18:04:51.734Z,19.40
2023-04-24T18:08:00.360Z,18.83
2023-04-24T18:11:08.453Z,20.17
2023-04-24T18:14:15.153Z,25.13
2023-04-24T18:17:21.780Z,17.30
2023-04-24T18:20:28.524Z,15.67
2023-04-24T18:23:35.524Z,13.23
2023-04-24T18:26:43.321Z,7.63
2023-04-24T18:29:49.824Z,7.27
2023-04-24T18:32:56.118Z,8.93
2023-04-24T18:36:03.716Z,9.50
2023-04-24T18:39:09.769Z,8.77
2023-04-24T18:42:17.831Z,9.83
2023-04-24T18:45:23.906Z,8.80
2023-04-24T18:48:31.316Z,8.03
2023-04-24T18:51:50.212Z,8.97
2023-04-24T18:54:59.566Z,12.07
2023-04-24T18:58:07.699Z,11.43
2023-04-24T19:01:14.269Z,7.83
2023-04-24T19:04:20.976Z,3.30
2023-04-24T19:07:27.349Z,6.73
2023-04-24T19:10:34.517Z,7.00
2023-04-24T19:13:42.422Z,10.50
2023-04-24T19:16:49.129Z,5.70
2023-04-24T19:19:55.672Z,6.47
2023-04-24T19:23:02.401Z,4.03
2023-04-24T19:26:09.093Z,18.10
2023-04-24T19:29:16.803Z,5.17
2023-04-24T19:32:23.603Z,3.70
2023-04-24T19:35:30.617Z,3.37
2023-04-24T19:38:36.842Z,3.80
2023-04-24T19:41:43.000Z,3.57
2023-04-24T19:44:50.738Z,2.77
2023-04-24T19:47:57.243Z,3.10
2023-04-24T19:51:04.464Z,3.87
2023-04-24T19:54:10.637Z,8.47
2023-04-24T19:57:16.902Z,3.63
2023-04-24T20:00:24.655Z,3.27
2023-04-24T20:03:33.936Z,4.47
2023-04-24T20:06:40.592Z,4.10
2023-04-24T20:09:46.750Z,3.00
2023-04-24T20:12:53.082Z,3.37
2023-04-24T20:16:01.084Z,2.40
2023-04-24T20:19:08.186Z,2.20
2023-04-24T20:22:14.989Z,2.30
2023-04-24T20:25:21.534Z,4.90
2023-04-24T20:28:28.438Z,5.17
2023-04-24T20:31:36.430Z,5.20
2023-04-24T20:34:42.727Z,3.33
2023-04-24T20:37:49.229Z,2.40
2023-04-24T20:40:58.090Z,2.27
2023-04-24T20:44:06.451Z,3.60
2023-04-24T20:47:14.301Z,3.13
2023-04-24T20:50:20.585Z,2.97
2023-04-24T20:53:27.041Z,2.90
2023-04-24T20:56:33.224Z,3.30
2023-04-24T20:59:40.913Z,2.83
2023-04-24T21:02:49.054Z,3.63
2023-04-24T21:05:55.716Z,2.43
2023-04-24T21:09:02.155Z,2.23
2023-04-24T21:12:09.257Z,2.47
2023-04-24T21:15:15.859Z,2.70
2023-04-24T21:18:23.826Z,3.77
2023-04-24T21:21:29.996Z,2.90
2023-04-24T21:24:36.907Z,2.50
2023-04-24T21:27:43.671Z,2.63
2023-04-24T21:30:50.164Z,2.40
2023-04-24T21:33:57.584Z,2.73
2023-04-24T21:37:03.850Z,2.80
2023-04-24T21:40:12.405Z,2.70
2023-04-24T21:43:20.593Z,3.40
2023-04-24T21:46:31.101Z,3.30
2023-04-24T21:49:38.879Z,3.03
2023-04-24T21:52:45.111Z,3.77
2023-04-24T21:55:51.623Z,3.07
2023-04-24T21:58:58.361Z,6.90
2023-04-24T22:02:05.010Z,3.13
2023-04-24T22:05:15.803Z,2.60
2023-04-24T22:08:22.270Z,3.37
2023-04-24T22:11:28.765Z,2.43
2023-04-24T22:14:35.120Z,3.80
2023-04-24T22:17:41.439Z,6.20
2023-04-24T22:20:48.957Z,5.00
2023-04-24T22:23:55.470Z,5.97
2023-04-24T22:27:02.474Z,5.53
2023-04-24T22:30:10.379Z,5.80
2023-04-24T22:33:16.843Z,4.13
2023-04-24T22:36:24.217Z,3.63
2023-04-24T22:39:30.118Z,2.67
2023-04-24T22:42:36.737Z,2.53
2023-04-24T22:45:43.039Z,3.40
2023-04-24T22:48:49.393Z,3.10
2023-04-24T22:51:57.874Z,2.50
2023-04-24T22:55:03.987Z,2.80
2023-04-24T22:58:10.573Z,3.10
2023-04-24T23:01:17.571Z,2.90
2023-04-24T23:04:24.082Z,3.33
2023-04-24T23:07:31.833Z,3.30
2023-04-24T23:10:38.368Z,2.70
2023-04-24T23:13:44.957Z,2.97
2023-04-24T23:16:51.414Z,2.30
2023-04-24T23:19:57.579Z,2.53
2023-04-24T23:23:05.438Z,2.33
2023-04-24T23:26:11.637Z,2.70
2023-04-24T23:29:17.868Z,3.10
2023-04-24T23:32:24.345Z,3.00
2023-04-24T23:35:31.009Z,3.23
2023-04-24T23:38:47.061Z,2.80
2023-04-24T23:41:56.262Z,2.30
2023-04-24T23:45:02.350Z,2.47
2023-04-24T23:48:08.635Z,2.40
2023-04-24T23:51:14.923Z,2.40
2023-04-24T23:54:22.684Z,2.20
2023-04-24T23:57:29.707Z,2.03
